East Tallassee, AL

4:56 PM CDT on July 20, 2017 (GMT -0500)
Plant breeding unit | | Change Station

Elev 230 ft 32.50 °N, 85.89 °W | Updated 3 minutes ago

Partly Cloudy
Partly Cloudy
78.5 °F
Feels Like 81 °F
N
4.0
Wind Variable Wind from East
Gusts 12.0 mph

Today
High -- | Low -- °F
--% Chance of Precip.
Yesterday
High -- | Low -- °F
Precip. -- in
Pressure 30.08 in
Visibility 10.0 miles
Clouds Scattered Clouds 6000 ft
Mostly Cloudy 9000 ft
Heat Index 81 °F
Dew Point 73 °F
Humidity 83%
Rainfall 0.00 in
Snow Depth Not available.
5:49 AM 7:49 PM
Waning Crescent, 9% visible
SPECI KAUO 202149Z AUTO 32010G19KT 10SM SCT060 BKN090 26/22 A3008 RMK AO2 LTG DSNT E AND NW TSB01E22B24E43
Pressure 30.08 in
Visibility 10.0 miles
Clouds Scattered Clouds 6000 ft
Mostly Cloudy 9000 ft
Heat Index 81 °F
Dew Point 73 °F
Humidity 83%
Rainfall 0.00 in
Snow Depth Not available.
5:49 AM 7:49 PM
Waning Crescent, 9% visible
SPECI KAUO 202149Z AUTO 32010G19KT 10SM SCT060 BKN090 26/22 A3008 RMK AO2 LTG DSNT E AND NW TSB01E22B24E43

Get Severe Weather Alerts

Thanks for signing up!

Be on the lookout for a verification email in your inbox.

You'll start receiving the daily forecast at 6 AM.

×

10-Day Weather Forecast

Almanac

Astronomy

Jul. 20, 2017 Rise Set
Actual Time
Civil Twilight
Nautical Twilight
Astronomical Twilight
Moon
Length of Visible Light
Length of Day
Tomorrow will be .
, % of the Moon is Illuminated

Today's Extremes

State Highs State Lows

Community

WunderPhotos

Category 6

Welcome to Category 6. This is the collective home for Weather Underground's featured writeups by Dr. Jeff Masters (right), Bob Henson (left), Chris Burt, and other regular contributors.

Nearby

Air Quality

  Air Quality AQ Index Pollutant
Not available.

Snow Depth

Station Depth Elevation

Earthquake Activity

City Distance Mag. Time & Date
Minimum magnitude displayed is 2.5.

Coastal Water Temperatures

Place Temperature

Stations

Nearby Weather Stations

Station Location Temp. Windchill Dew Point Humidity Wind Precip. Elev Updated Type
                   

Watches & Warnings

There are currently no watches in effect.